sensor_id;sensor_type;location;lat;lon;timestamp;temperature;humidity
14053;DHT22;7101;51.600;7.310;2022-12-24T00:00:25;10.50;99.90
14053;DHT22;7101;51.600;7.310;2022-12-24T00:02:53;10.40;99.90
14053;DHT22;7101;51.600;7.310;2022-12-24T00:05:20;10.30;99.90
14053;DHT22;7101;51.600;7.310;2022-12-24T00:07:47;10.30;99.90
14053;DHT22;7101;51.600;7.310;2022-12-24T00:10:14;10.30;99.90
14053;DHT22;7101;51.600;7.310;2022-12-24T00:12:42;10.20;99.90
14053;DHT22;7101;51.600;7.310;2022-12-24T00:15:09;10.20;99.90
14053;DHT22;7101;51.600;7.310;2022-12-24T00:17:36;10.20;99.90
14053;DHT22;7101;51.600;7.310;2022-12-24T00:20:06;10.10;99.90
14053;DHT22;7101;51.600;7.310;2022-12-24T00:22:33;10.10;99.90
14053;DHT22;7101;51.600;7.310;2022-12-24T00:25:00;10.10;99.90
14053;DHT22;7101;51.600;7.310;2022-12-24T00:27:27;10.10;99.90
14053;DHT22;7101;51.600;7.310;2022-12-24T00:29:54;10.10;99.90
14053;DHT22;7101;51.600;7.310;2022-12-24T00:32:21;10.10;99.90
14053;DHT22;7101;51.600;7.310;2022-12-24T00:34:47;10.10;99.90
14053;DHT22;7101;51.600;7.310;2022-12-24T00:37:16;10.10;99.90
14053;DHT22;7101;51.600;7.310;2022-12-24T00:39:42;10.10;99.90
14053;DHT22;7101;51.600;7.310;2022-12-24T00:42:09;10.10;99.90
14053;DHT22;7101;51.600;7.310;2022-12-24T00:44:36;10.10;99.90
14053;DHT22;7101;51.600;7.310;2022-12-24T00:47:03;10.10;99.90
14053;DHT22;7101;51.600;7.310;2022-12-24T00:49:30;10.10;99.90
14053;DHT22;7101;51.600;7.310;2022-12-24T00:51:56;10.10;99.90
14053;DHT22;7101;51.600;7.310;2022-12-24T00:54:24;10.20;99.90
14053;DHT22;7101;51.600;7.310;2022-12-24T00:56:51;10.20;99.90
14053;DHT22;7101;51.600;7.310;2022-12-24T00:59:18;10.20;99.90
14053;DHT22;7101;51.600;7.310;2022-12-24T01:01:45;10.20;99.90
14053;DHT22;7101;51.600;7.310;2022-12-24T01:04:12;10.20;99.90
14053;DHT22;7101;51.600;7.310;2022-12-24T01:06:56;10.20;99.90
14053;DHT22;7101;51.600;7.310;2022-12-24T01:09:24;10.30;99.90
14053;DHT22;7101;51.600;7.310;2022-12-24T01:11:51;10.30;99.90
14053;DHT22;7101;51.600;7.310;2022-12-24T01:14:18;10.30;99.90
14053;DHT22;7101;51.600;7.310;2022-12-24T01:16:45;10.30;99.90
14053;DHT22;7101;51.600;7.310;2022-12-24T01:19:11;10.30;99.90
14053;DHT22;7101;51.600;7.310;2022-12-24T01:21:38;10.30;99.90
14053;DHT22;7101;51.600;7.310;2022-12-24T01:24:05;10.30;99.90
14053;DHT22;7101;51.600;7.310;2022-12-24T01:26:33;10.20;99.90
14053;DHT22;7101;51.600;7.310;2022-12-24T01:29:00;10.20;99.90
14053;DHT22;7101;51.600;7.310;2022-12-24T01:31:27;10.20;99.90
14053;DHT22;7101;51.600;7.310;2022-12-24T01:33:54;10.20;99.90
14053;DHT22;7101;51.600;7.310;2022-12-24T01:36:20;10.10;99.90
14053;DHT22;7101;51.600;7.310;2022-12-24T01:38:47;10.10;99.90
14053;DHT22;7101;51.600;7.310;2022-12-24T01:41:15;10.10;99.90
14053;DHT22;7101;51.600;7.310;2022-12-24T01:44:19;10.10;99.90
14053;DHT22;7101;51.600;7.310;2022-12-24T01:46:48;10.20;99.90
14053;DHT22;7101;51.600;7.310;2022-12-24T01:49:17;10.30;99.90
14053;DHT22;7101;51.600;7.310;2022-12-24T01:51:46;10.30;99.90
14053;DHT22;7101;51.600;7.310;2022-12-24T01:54:17;10.30;99.90
14053;DHT22;7101;51.600;7.310;2022-12-24T01:56:48;10.30;99.90
14053;DHT22;7101;51.600;7.310;2022-12-24T01:59:19;10.30;99.90
14053;DHT22;7101;51.600;7.310;2022-12-24T02:01:47;10.30;99.90
14053;DHT22;7101;51.600;7.310;2022-12-24T02:04:18;10.30;99.90
14053;DHT22;7101;51.600;7.310;2022-12-24T02:06:49;10.30;99.90
14053;DHT22;7101;51.600;7.310;2022-12-24T02:09:16;10.20;99.90
14053;DHT22;7101;51.600;7.310;2022-12-24T02:11:43;10.20;99.90
14053;DHT22;7101;51.600;7.310;2022-12-24T02:14:11;10.20;99.90
14053;DHT22;7101;51.600;7.310;2022-12-24T02:16:48;10.30;99.90
14053;DHT22;7101;51.600;7.310;2022-12-24T02:19:50;10.30;99.90
14053;DHT22;7101;51.600;7.310;2022-12-24T02:22:36;10.30;99.90
14053;DHT22;7101;51.600;7.310;2022-12-24T02:25:22;10.20;99.90
14053;DHT22;7101;51.600;7.310;2022-12-24T02:27:56;10.20;99.90
14053;DHT22;7101;51.600;7.310;2022-12-24T02:30:29;10.10;99.90
14053;DHT22;7101;51.600;7.310;2022-12-24T02:33:04;10.10;99.90
14053;DHT22;7101;51.600;7.310;2022-12-24T02:35:38;10.00;99.90
14053;DHT22;7101;51.600;7.310;2022-12-24T02:38:12;10.00;99.90
14053;DHT22;7101;51.600;7.310;2022-12-24T02:40:45;10.00;99.90
14053;DHT22;7101;51.600;7.310;2022-12-24T02:43:18;9.90;99.90
14053;DHT22;7101;51.600;7.310;2022-12-24T02:45:51;9.90;99.90
14053;DHT22;7101;51.600;7.310;2022-12-24T02:48:20;9.90;99.90
14053;DHT22;7101;51.600;7.310;2022-12-24T02:51:00;9.90;99.90
14053;DHT22;7101;51.600;7.310;2022-12-24T02:53:28;9.80;99.90
14053;DHT22;7101;51.600;7.310;2022-12-24T02:56:07;9.70;99.90
14053;DHT22;7101;51.600;7.310;2022-12-24T02:58:44;9.70;99.90
14053;DHT22;7101;51.600;7.310;2022-12-24T03:01:18;9.70;99.90
14053;DHT22;7101;51.600;7.310;2022-12-24T03:03:59;9.70;99.90
14053;DHT22;7101;51.600;7.310;2022-12-24T03:06:43;9.70;99.90
14053;DHT22;7101;51.600;7.310;2022-12-24T03:09:18;9.70;99.90
14053;DHT22;7101;51.600;7.310;2022-12-24T03:11:52;9.70;99.90
14053;DHT22;7101;51.600;7.310;2022-12-24T03:14:24;9.70;99.90
14053;DHT22;7101;51.600;7.310;2022-12-24T03:16:54;9.60;99.90
14053;DHT22;7101;51.600;7.310;2022-12-24T03:19:23;9.50;99.90
14053;DHT22;7101;51.600;7.310;2022-12-24T03:21:51;9.60;99.90
14053;DHT22;7101;51.600;7.310;2022-12-24T03:24:20;9.50;99.90
14053;DHT22;7101;51.600;7.310;2022-12-24T03:26:47;9.50;99.90
14053;DHT22;7101;51.600;7.310;2022-12-24T03:29:14;9.50;99.90
14053;DHT22;7101;51.600;7.310;2022-12-24T03:31:43;9.50;99.90
14053;DHT22;7101;51.600;7.310;2022-12-24T03:34:12;9.50;99.90
14053;DHT22;7101;51.600;7.310;2022-12-24T03:36:39;9.50;99.90
14053;DHT22;7101;51.600;7.310;2022-12-24T03:39:07;9.50;99.90
14053;DHT22;7101;51.600;7.310;2022-12-24T03:41:34;9.50;99.90
14053;DHT22;7101;51.600;7.310;2022-12-24T03:44:01;9.50;99.90
14053;DHT22;7101;51.600;7.310;2022-12-24T03:46:28;9.70;99.90
14053;DHT22;7101;51.600;7.310;2022-12-24T03:48:55;9.70;99.90
14053;DHT22;7101;51.600;7.310;2022-12-24T03:51:25;9.70;99.90
14053;DHT22;7101;51.600;7.310;2022-12-24T03:53:53;9.70;99.90
14053;DHT22;7101;51.600;7.310;2022-12-24T03:56:20;9.80;99.90
14053;DHT22;7101;51.600;7.310;2022-12-24T03:58:47;9.80;99.90
14053;DHT22;7101;51.600;7.310;2022-12-24T04:01:15;9.70;99.90
14053;DHT22;7101;51.600;7.310;2022-12-24T04:03:42;9.70;99.90
14053;DHT22;7101;51.600;7.310;2022-12-24T04:06:11;9.80;99.90
14053;DHT22;7101;51.600;7.310;2022-12-24T04:08:40;9.80;99.90
14053;DHT22;7101;51.600;7.310;2022-12-24T04:11:09;9.80;99.90
14053;DHT22;7101;51.600;7.310;2022-12-24T04:13:36;9.80;99.90
14053;DHT22;7101;51.600;7.310;2022-12-24T04:16:05;9.90;99.90
14053;DHT22;7101;51.600;7.310;2022-12-24T04:18:33;9.90;99.90
14053;DHT22;7101;51.600;7.310;2022-12-24T04:21:01;9.90;99.90
14053;DHT22;7101;51.600;7.310;2022-12-24T04:23:29;9.90;99.90
14053;DHT22;7101;51.600;7.310;2022-12-24T04:25:59;9.90;99.90
14053;DHT22;7101;51.600;7.310;2022-12-24T04:28:27;10.00;99.90
14053;DHT22;7101;51.600;7.310;2022-12-24T04:30:57;10.00;99.90
14053;DHT22;7101;51.600;7.310;2022-12-24T04:33:24;10.00;99.90
14053;DHT22;7101;51.600;7.310;2022-12-24T04:35:51;10.00;99.90
14053;DHT22;7101;51.600;7.310;2022-12-24T04:38:18;10.00;99.90
14053;DHT22;7101;51.600;7.310;2022-12-24T04:40:44;10.00;99.90
14053;DHT22;7101;51.600;7.310;2022-12-24T04:43:14;10.00;99.90
14053;DHT22;7101;51.600;7.310;2022-12-24T04:45:41;10.00;99.90
14053;DHT22;7101;51.600;7.310;2022-12-24T04:48:08;10.00;99.90
14053;DHT22;7101;51.600;7.310;2022-12-24T04:50:34;10.00;99.90
14053;DHT22;7101;51.600;7.310;2022-12-24T04:53:01;10.10;99.90
14053;DHT22;7101;51.600;7.310;2022-12-24T04:55:28;10.10;99.90
14053;DHT22;7101;51.600;7.310;2022-12-24T04:57:55;10.00;99.90
14053;DHT22;7101;51.600;7.310;2022-12-24T05:00:23;10.00;99.90
14053;DHT22;7101;51.600;7.310;2022-12-24T05:02:50;10.00;99.90
14053;DHT22;7101;51.600;7.310;2022-12-24T05:05:17;10.00;99.90
14053;DHT22;7101;51.600;7.310;2022-12-24T05:07:44;10.00;99.90
14053;DHT22;7101;51.600;7.310;2022-12-24T05:10:10;9.90;99.90
14053;DHT22;7101;51.600;7.310;2022-12-24T05:12:37;9.90;99.90
14053;DHT22;7101;51.600;7.310;2022-12-24T05:15:05;10.00;99.90
14053;DHT22;7101;51.600;7.310;2022-12-24T05:17:33;10.00;99.90
14053;DHT22;7101;51.600;7.310;2022-12-24T05:20:00;9.90;99.90
14053;DHT22;7101;51.600;7.310;2022-12-24T05:22:27;10.00;99.90
14053;DHT22;7101;51.600;7.310;2022-12-24T05:25:11;10.00;99.90
14053;DHT22;7101;51.600;7.310;2022-12-24T05:27:56;9.90;99.90
14053;DHT22;7101;51.600;7.310;2022-12-24T05:30:22;10.00;99.90
14053;DHT22;7101;51.600;7.310;2022-12-24T05:32:50;10.00;99.90
14053;DHT22;7101;51.600;7.310;2022-12-24T05:35:18;9.90;99.90
14053;DHT22;7101;51.600;7.310;2022-12-24T05:37:44;9.90;99.90
14053;DHT22;7101;51.600;7.310;2022-12-24T05:40:12;9.90;99.90
14053;DHT22;7101;51.600;7.310;2022-12-24T05:42:38;9.90;99.90
14053;DHT22;7101;51.600;7.310;2022-12-24T05:45:06;9.90;99.90
14053;DHT22;7101;51.600;7.310;2022-12-24T05:47:33;10.00;99.90
14053;DHT22;7101;51.600;7.310;2022-12-24T05:50:02;9.90;99.90
14053;DHT22;7101;51.600;7.310;2022-12-24T05:52:29;9.90;99.90
14053;DHT22;7101;51.600;7.310;2022-12-24T05:54:55;9.90;99.90
14053;DHT22;7101;51.600;7.310;2022-12-24T05:57:22;9.90;99.90
14053;DHT22;7101;51.600;7.310;2022-12-24T05:59:49;9.90;99.90
14053;DHT22;7101;51.600;7.310;2022-12-24T06:02:16;9.90;99.90
14053;DHT22;7101;51.600;7.310;2022-12-24T06:04:43;10.00;99.90
14053;DHT22;7101;51.600;7.310;2022-12-24T06:07:11;10.00;99.90
14053;DHT22;7101;51.600;7.310;2022-12-24T06:09:38;9.90;99.90
14053;DHT22;7101;51.600;7.310;2022-12-24T06:12:05;9.90;99.90
14053;DHT22;7101;51.600;7.310;2022-12-24T06:14:32;9.90;99.90
14053;DHT22;7101;51.600;7.310;2022-12-24T06:16:59;10.00;99.90
14053;DHT22;7101;51.600;7.310;2022-12-24T06:19:26;10.00;99.90
14053;DHT22;7101;51.600;7.310;2022-12-24T06:21:52;10.00;99.90
14053;DHT22;7101;51.600;7.310;2022-12-24T06:24:23;10.00;99.90
14053;DHT22;7101;51.600;7.310;2022-12-24T06:26:50;10.00;99.90
14053;DHT22;7101;51.600;7.310;2022-12-24T06:29:17;10.00;99.90
14053;DHT22;7101;51.600;7.310;2022-12-24T06:31:44;10.00;99.90
14053;DHT22;7101;51.600;7.310;2022-12-24T06:34:11;10.00;99.90
14053;DHT22;7101;51.600;7.310;2022-12-24T06:36:38;10.00;99.90
14053;DHT22;7101;51.600;7.310;2022-12-24T06:39:04;10.10;99.90
14053;DHT22;7101;51.600;7.310;2022-12-24T06:41:33;10.10;99.90
14053;DHT22;7101;51.600;7.310;2022-12-24T06:44:00;10.10;99.90
14053;DHT22;7101;51.600;7.310;2022-12-24T06:46:27;10.10;99.90
14053;DHT22;7101;51.600;7.310;2022-12-24T06:48:53;10.10;99.90
14053;DHT22;7101;51.600;7.310;2022-12-24T06:51:20;10.10;99.90
14053;DHT22;7101;51.600;7.310;2022-12-24T06:53:48;10.10;99.90
14053;DHT22;7101;51.600;7.310;2022-12-24T06:56:16;10.10;99.90
14053;DHT22;7101;51.600;7.310;2022-12-24T06:58:44;10.10;99.90
14053;DHT22;7101;51.600;7.310;2022-12-24T07:01:13;10.10;99.90
14053;DHT22;7101;51.600;7.310;2022-12-24T07:03:41;10.10;99.90
14053;DHT22;7101;51.600;7.310;2022-12-24T07:06:11;10.10;99.90
14053;DHT22;7101;51.600;7.310;2022-12-24T07:08:40;10.10;99.90
14053;DHT22;7101;51.600;7.310;2022-12-24T07:11:07;10.10;99.90
14053;DHT22;7101;51.600;7.310;2022-12-24T07:13:34;10.10;99.90
14053;DHT22;7101;51.600;7.310;2022-12-24T07:16:03;10.10;99.90
14053;DHT22;7101;51.600;7.310;2022-12-24T07:18:31;10.10;99.90
14053;DHT22;7101;51.600;7.310;2022-12-24T07:20:59;10.10;99.90
14053;DHT22;7101;51.600;7.310;2022-12-24T07:23:26;10.20;99.90
14053;DHT22;7101;51.600;7.310;2022-12-24T07:25:53;10.20;99.90
14053;DHT22;7101;51.600;7.310;2022-12-24T07:28:20;10.20;99.90
14053;DHT22;7101;51.600;7.310;2022-12-24T07:30:47;10.20;99.90
14053;DHT22;7101;51.600;7.310;2022-12-24T07:33:16;10.20;99.90
14053;DHT22;7101;51.600;7.310;2022-12-24T07:35:45;10.20;99.90
14053;DHT22;7101;51.600;7.310;2022-12-24T07:38:15;10.20;99.90
14053;DHT22;7101;51.600;7.310;2022-12-24T07:40:42;10.20;99.90
14053;DHT22;7101;51.600;7.310;2022-12-24T07:43:09;10.30;99.90
14053;DHT22;7101;51.600;7.310;2022-12-24T07:45:36;10.30;99.90
14053;DHT22;7101;51.600;7.310;2022-12-24T07:48:04;10.20;99.90
14053;DHT22;7101;51.600;7.310;2022-12-24T07:50:32;10.20;99.90
14053;DHT22;7101;51.600;7.310;2022-12-24T07:53:00;10.20;99.90
14053;DHT22;7101;51.600;7.310;2022-12-24T07:55:26;10.30;99.90
14053;DHT22;7101;51.600;7.310;2022-12-24T07:57:53;10.20;99.90
14053;DHT22;7101;51.600;7.310;2022-12-24T08:00:20;10.20;99.90
14053;DHT22;7101;51.600;7.310;2022-12-24T08:02:47;10.20;99.90
14053;DHT22;7101;51.600;7.310;2022-12-24T08:05:16;10.20;99.90
14053;DHT22;7101;51.600;7.310;2022-12-24T08:07:44;10.20;99.90
14053;DHT22;7101;51.600;7.310;2022-12-24T08:10:11;10.30;99.90
14053;DHT22;7101;51.600;7.310;2022-12-24T08:12:39;10.30;99.90
14053;DHT22;7101;51.600;7.310;2022-12-24T08:15:07;10.30;99.90
14053;DHT22;7101;51.600;7.310;2022-12-24T08:17:33;10.30;99.90
14053;DHT22;7101;51.600;7.310;2022-12-24T08:20:00;10.30;99.90
14053;DHT22;7101;51.600;7.310;2022-12-24T08:22:27;10.30;99.90
14053;DHT22;7101;51.600;7.310;2022-12-24T08:24:55;10.30;99.90
14053;DHT22;7101;51.600;7.310;2022-12-24T08:27:22;10.30;99.90
14053;DHT22;7101;51.600;7.310;2022-12-24T08:29:49;10.40;99.90
14053;DHT22;7101;51.600;7.310;2022-12-24T08:32:17;10.40;99.90
14053;DHT22;7101;51.600;7.310;2022-12-24T08:34:43;10.40;99.90
14053;DHT22;7101;51.600;7.310;2022-12-24T08:37:10;10.40;99.90
14053;DHT22;7101;51.600;7.310;2022-12-24T08:39:37;10.40;99.90
14053;DHT22;7101;51.600;7.310;2022-12-24T08:42:05;10.40;99.90
14053;DHT22;7101;51.600;7.310;2022-12-24T08:44:32;10.40;99.90
14053;DHT22;7101;51.600;7.310;2022-12-24T08:46:59;10.40;99.90
14053;DHT22;7101;51.600;7.310;2022-12-24T08:49:25;10.50;99.90
14053;DHT22;7101;51.600;7.310;2022-12-24T08:51:52;10.50;99.90
14053;DHT22;7101;51.600;7.310;2022-12-24T08:54:19;10.50;99.90
14053;DHT22;7101;51.600;7.310;2022-12-24T08:56:47;10.50;99.90
14053;DHT22;7101;51.600;7.310;2022-12-24T08:59:15;10.60;90.90
14053;DHT22;7101;51.600;7.310;2022-12-24T09:01:42;10.50;81.60
14053;DHT22;7101;51.600;7.310;2022-12-24T09:04:09;10.60;64.30
14053;DHT22;7101;51.600;7.310;2022-12-24T09:06:36;10.50;78.10
14053;DHT22;7101;51.600;7.310;2022-12-24T09:09:03;10.50;30.90
14053;DHT22;7101;51.600;7.310;2022-12-24T09:11:33;10.50;1.00
14053;DHT22;7101;51.600;7.310;2022-12-24T09:14:00;10.50;1.00
14053;DHT22;7101;51.600;7.310;2022-12-24T09:16:28;10.50;2.50
14053;DHT22;7101;51.600;7.310;2022-12-24T09:18:55;10.50;29.90
14053;DHT22;7101;51.600;7.310;2022-12-24T09:21:23;10.50;32.50
14053;DHT22;7101;51.600;7.310;2022-12-24T09:23:49;10.50;47.10
14053;DHT22;7101;51.600;7.310;2022-12-24T09:26:18;10.60;37.10
14053;DHT22;7101;51.600;7.310;2022-12-24T09:28:45;10.70;1.00
14053;DHT22;7101;51.600;7.310;2022-12-24T09:31:15;10.80;1.00
14053;DHT22;7101;51.600;7.310;2022-12-24T09:33:45;10.90;1.00
14053;DHT22;7101;51.600;7.310;2022-12-24T09:36:12;11.00;1.00
14053;DHT22;7101;51.600;7.310;2022-12-24T09:38:40;10.90;1.00
14053;DHT22;7101;51.600;7.310;2022-12-24T09:41:11;10.90;1.00
14053;DHT22;7101;51.600;7.310;2022-12-24T09:43:39;10.80;1.00
14053;DHT22;7101;51.600;7.310;2022-12-24T09:46:13;10.90;1.00
14053;DHT22;7101;51.600;7.310;2022-12-24T09:48:49;11.00;1.00
14053;DHT22;7101;51.600;7.310;2022-12-24T09:51:23;11.10;1.00
14053;DHT22;7101;51.600;7.310;2022-12-24T09:53:53;11.10;1.00
14053;DHT22;7101;51.600;7.310;2022-12-24T09:56:24;11.10;1.00
14053;DHT22;7101;51.600;7.310;2022-12-24T09:58:53;11.00;1.00
14053;DHT22;7101;51.600;7.310;2022-12-24T10:01:22;11.00;1.00
14053;DHT22;7101;51.600;7.310;2022-12-24T10:03:51;11.00;1.00
14053;DHT22;7101;51.600;7.310;2022-12-24T10:06:20;10.90;1.00
14053;DHT22;7101;51.600;7.310;2022-12-24T10:09:01;11.00;1.00
14053;DHT22;7101;51.600;7.310;2022-12-24T10:11:34;11.00;1.00
14053;DHT22;7101;51.600;7.310;2022-12-24T10:14:14;10.90;1.00
14053;DHT22;7101;51.600;7.310;2022-12-24T10:16:50;10.80;1.00
14053;DHT22;7101;51.600;7.310;2022-12-24T10:19:29;10.80;1.00
14053;DHT22;7101;51.600;7.310;2022-12-24T10:22:04;11.00;1.00
14053;DHT22;7101;51.600;7.310;2022-12-24T10:24:38;11.00;1.00
14053;DHT22;7101;51.600;7.310;2022-12-24T10:27:12;11.10;1.00
14053;DHT22;7101;51.600;7.310;2022-12-24T10:29:43;11.20;1.00
14053;DHT22;7101;51.600;7.310;2022-12-24T10:32:16;11.40;1.00
14053;DHT22;7101;51.600;7.310;2022-12-24T10:34:51;11.40;1.00
14053;DHT22;7101;51.600;7.310;2022-12-24T10:37:22;11.30;1.00
14053;DHT22;7101;51.600;7.310;2022-12-24T10:39:49;11.40;1.00
14053;DHT22;7101;51.600;7.310;2022-12-24T10:42:17;11.40;1.00
14053;DHT22;7101;51.600;7.310;2022-12-24T10:44:49;11.50;1.00
14053;DHT22;7101;51.600;7.310;2022-12-24T10:47:20;11.70;1.00
14053;DHT22;7101;51.600;7.310;2022-12-24T10:49:53;11.80;1.00
14053;DHT22;7101;51.600;7.310;2022-12-24T10:52:28;11.80;1.00
14053;DHT22;7101;51.600;7.310;2022-12-24T10:55:08;11.70;1.00
14053;DHT22;7101;51.600;7.310;2022-12-24T10:57:36;11.60;1.00
14053;DHT22;7101;51.600;7.310;2022-12-24T11:00:05;11.60;1.00
14053;DHT22;7101;51.600;7.310;2022-12-24T11:02:34;11.60;1.00
14053;DHT22;7101;51.600;7.310;2022-12-24T11:05:05;11.50;1.00
14053;DHT22;7101;51.600;7.310;2022-12-24T11:07:32;11.60;1.00
14053;DHT22;7101;51.600;7.310;2022-12-24T11:10:01;11.70;1.00
14053;DHT22;7101;51.600;7.310;2022-12-24T11:12:30;11.70;1.00
14053;DHT22;7101;51.600;7.310;2022-12-24T11:15:02;11.60;1.00
14053;DHT22;7101;51.600;7.310;2022-12-24T11:17:29;11.60;1.00
14053;DHT22;7101;51.600;7.310;2022-12-24T11:19:57;11.50;1.00
14053;DHT22;7101;51.600;7.310;2022-12-24T11:22:27;11.70;1.00
14053;DHT22;7101;51.600;7.310;2022-12-24T11:25:00;11.70;1.00
14053;DHT22;7101;51.600;7.310;2022-12-24T11:27:37;11.60;1.00
14053;DHT22;7101;51.600;7.310;2022-12-24T11:30:28;11.70;1.00
14053;DHT22;7101;51.600;7.310;2022-12-24T11:33:15;11.90;99.90
14053;DHT22;7101;51.600;7.310;2022-12-24T11:35:46;11.80;99.90
14053;DHT22;7101;51.600;7.310;2022-12-24T11:38:20;11.80;99.90
14053;DHT22;7101;51.600;7.310;2022-12-24T11:40:49;11.70;99.90
14053;DHT22;7101;51.600;7.310;2022-12-24T11:43:22;11.60;1.00
14053;DHT22;7101;51.600;7.310;2022-12-24T11:45:51;11.60;1.00
14053;DHT22;7101;51.600;7.310;2022-12-24T11:48:27;11.60;1.00
14053;DHT22;7101;51.600;7.310;2022-12-24T11:50:58;11.70;1.00
14053;DHT22;7101;51.600;7.310;2022-12-24T11:53:33;11.70;1.00
14053;DHT22;7101;51.600;7.310;2022-12-24T11:56:07;11.70;1.00
14053;DHT22;7101;51.600;7.310;2022-12-24T11:58:41;11.70;1.00
14053;DHT22;7101;51.600;7.310;2022-12-24T12:01:15;11.60;1.00
14053;DHT22;7101;51.600;7.310;2022-12-24T12:03:46;11.70;1.00
14053;DHT22;7101;51.600;7.310;2022-12-24T12:06:26;11.70;1.00
14053;DHT22;7101;51.600;7.310;2022-12-24T12:08:58;11.70;1.00
14053;DHT22;7101;51.600;7.310;2022-12-24T12:11:27;11.80;1.00
14053;DHT22;7101;51.600;7.310;2022-12-24T12:13:56;11.70;1.00
14053;DHT22;7101;51.600;7.310;2022-12-24T12:16:28;11.80;99.90
14053;DHT22;7101;51.600;7.310;2022-12-24T12:19:19;11.70;99.90
14053;DHT22;7101;51.600;7.310;2022-12-24T12:21:49;11.70;99.90
14053;DHT22;7101;51.600;7.310;2022-12-24T12:24:23;11.60;99.90
14053;DHT22;7101;51.600;7.310;2022-12-24T12:27:00;11.50;99.90
14053;DHT22;7101;51.600;7.310;2022-12-24T12:29:32;11.40;99.90
14053;DHT22;7101;51.600;7.310;2022-12-24T12:32:05;11.40;99.90
14053;DHT22;7101;51.600;7.310;2022-12-24T12:34:36;11.30;99.90
14053;DHT22;7101;51.600;7.310;2022-12-24T12:37:09;11.20;99.90
14053;DHT22;7101;51.600;7.310;2022-12-24T12:39:39;11.10;1.00
14053;DHT22;7101;51.600;7.310;2022-12-24T12:42:13;11.10;1.00
14053;DHT22;7101;51.600;7.310;2022-12-24T12:44:52;11.10;1.00
14053;DHT22;7101;51.600;7.310;2022-12-24T12:47:51;11.20;1.00
14053;DHT22;7101;51.600;7.310;2022-12-24T12:50:24;11.30;1.00
14053;DHT22;7101;51.600;7.310;2022-12-24T12:53:10;11.30;1.00
14053;DHT22;7101;51.600;7.310;2022-12-24T12:55:49;11.50;1.00
14053;DHT22;7101;51.600;7.310;2022-12-24T12:58:20;11.50;99.90
14053;DHT22;7101;51.600;7.310;2022-12-24T13:00:53;11.50;99.90
14053;DHT22;7101;51.600;7.310;2022-12-24T13:03:42;11.40;99.90
14053;DHT22;7101;51.600;7.310;2022-12-24T13:06:35;11.30;99.90
14053;DHT22;7101;51.600;7.310;2022-12-24T13:12:34;11.40;99.90
14053;DHT22;7101;51.600;7.310;2022-12-24T13:15:34;11.50;99.90
14053;DHT22;7101;51.600;7.310;2022-12-24T13:18:20;11.60;99.90
14053;DHT22;7101;51.600;7.310;2022-12-24T13:20:50;11.60;99.90
14053;DHT22;7101;51.600;7.310;2022-12-24T13:23:21;11.60;99.90
14053;DHT22;7101;51.600;7.310;2022-12-24T13:25:50;11.50;99.90
14053;DHT22;7101;51.600;7.310;2022-12-24T13:28:37;11.40;99.90
14053;DHT22;7101;51.600;7.310;2022-12-24T13:31:25;11.50;99.90
14053;DHT22;7101;51.600;7.310;2022-12-24T13:33:56;11.40;99.90
14053;DHT22;7101;51.600;7.310;2022-12-24T13:36:23;11.40;99.90
14053;DHT22;7101;51.600;7.310;2022-12-24T13:38:51;11.40;99.90
14053;DHT22;7101;51.600;7.310;2022-12-24T13:41:51;11.40;99.90
14053;DHT22;7101;51.600;7.310;2022-12-24T13:44:26;11.40;99.90
14053;DHT22;7101;51.600;7.310;2022-12-24T13:47:19;11.40;99.90
14053;DHT22;7101;51.600;7.310;2022-12-24T13:49:49;11.40;99.90
14053;DHT22;7101;51.600;7.310;2022-12-24T13:52:23;11.40;99.90
14053;DHT22;7101;51.600;7.310;2022-12-24T13:55:13;11.40;99.90
14053;DHT22;7101;51.600;7.310;2022-12-24T13:57:44;11.30;81.00
14053;DHT22;7101;51.600;7.310;2022-12-24T14:00:41;11.30;99.90
14053;DHT22;7101;51.600;7.310;2022-12-24T14:03:22;11.40;99.90
14053;DHT22;7101;51.600;7.310;2022-12-24T14:05:52;11.40;47.80
14053;DHT22;7101;51.600;7.310;2022-12-24T14:08:31;11.50;58.10
14053;DHT22;7101;51.600;7.310;2022-12-24T14:11:07;11.50;33.90
14053;DHT22;7101;51.600;7.310;2022-12-24T14:16:50;11.30;44.10
14053;DHT22;7101;51.600;7.310;2022-12-24T14:19:20;11.40;12.50
14053;DHT22;7101;51.600;7.310;2022-12-24T14:21:56;11.40;1.00
14053;DHT22;7101;51.600;7.310;2022-12-24T14:24:27;11.40;1.00
14053;DHT22;7101;51.600;7.310;2022-12-24T14:26:59;11.20;59.20
14053;DHT22;7101;51.600;7.310;2022-12-24T14:29:40;11.20;1.00
14053;DHT22;7101;51.600;7.310;2022-12-24T14:32:14;11.00;1.00
14053;DHT22;7101;51.600;7.310;2022-12-24T14:34:42;10.90;1.00
14053;DHT22;7101;51.600;7.310;2022-12-24T14:37:09;10.80;16.40
14053;DHT22;7101;51.600;7.310;2022-12-24T14:39:41;10.70;99.90
14053;DHT22;7101;51.600;7.310;2022-12-24T14:42:22;10.60;75.30
14053;DHT22;7101;51.600;7.310;2022-12-24T14:45:04;10.60;99.90
14053;DHT22;7101;51.600;7.310;2022-12-24T14:47:40;10.50;99.90
14053;DHT22;7101;51.600;7.310;2022-12-24T14:50:35;10.50;99.90
14053;DHT22;7101;51.600;7.310;2022-12-24T14:53:14;10.40;99.90
14053;DHT22;7101;51.600;7.310;2022-12-24T14:55:45;10.40;99.90
14053;DHT22;7101;51.600;7.310;2022-12-24T14:58:23;10.30;99.90
14053;DHT22;7101;51.600;7.310;2022-12-24T15:00:51;10.30;99.90
14053;DHT22;7101;51.600;7.310;2022-12-24T15:03:22;10.30;99.90
14053;DHT22;7101;51.600;7.310;2022-12-24T15:05:51;10.30;99.90
14053;DHT22;7101;51.600;7.310;2022-12-24T15:08:24;10.30;99.90
14053;DHT22;7101;51.600;7.310;2022-12-24T15:10:54;10.30;99.90
14053;DHT22;7101;51.600;7.310;2022-12-24T15:13:29;10.30;99.90
14053;DHT22;7101;51.600;7.310;2022-12-24T15:15:59;10.20;99.90
14053;DHT22;7101;51.600;7.310;2022-12-24T15:18:30;10.10;99.90
14053;DHT22;7101;51.600;7.310;2022-12-24T15:20:59;10.10;99.90
14053;DHT22;7101;51.600;7.310;2022-12-24T15:23:28;10.00;99.90
14053;DHT22;7101;51.600;7.310;2022-12-24T15:26:19;10.00;99.90
14053;DHT22;7101;51.600;7.310;2022-12-24T15:28:47;10.00;99.90
14053;DHT22;7101;51.600;7.310;2022-12-24T15:31:16;10.10;99.90
14053;DHT22;7101;51.600;7.310;2022-12-24T15:33:50;10.10;99.90
14053;DHT22;7101;51.600;7.310;2022-12-24T15:36:25;10.10;99.90
14053;DHT22;7101;51.600;7.310;2022-12-24T15:38:54;10.00;99.90
14053;DHT22;7101;51.600;7.310;2022-12-24T15:41:24;9.90;99.90
14053;DHT22;7101;51.600;7.310;2022-12-24T15:43:53;9.90;1.00
14053;DHT22;7101;51.600;7.310;2022-12-24T15:46:22;9.80;1.00
14053;DHT22;7101;51.600;7.310;2022-12-24T15:48:52;9.70;1.00
14053;DHT22;7101;51.600;7.310;2022-12-24T15:51:22;9.70;1.00
14053;DHT22;7101;51.600;7.310;2022-12-24T15:53:54;9.60;1.00
14053;DHT22;7101;51.600;7.310;2022-12-24T15:56:41;9.50;1.00
14053;DHT22;7101;51.600;7.310;2022-12-24T15:59:25;9.50;1.00
14053;DHT22;7101;51.600;7.310;2022-12-24T16:01:53;9.40;1.00
14053;DHT22;7101;51.600;7.310;2022-12-24T16:04:24;9.40;1.00
14053;DHT22;7101;51.600;7.310;2022-12-24T16:06:53;9.40;1.00
14053;DHT22;7101;51.600;7.310;2022-12-24T16:09:40;9.30;1.00
14053;DHT22;7101;51.600;7.310;2022-12-24T16:12:14;9.30;1.00
14053;DHT22;7101;51.600;7.310;2022-12-24T16:14:46;9.20;1.00
14053;DHT22;7101;51.600;7.310;2022-12-24T16:17:20;9.20;1.00
14053;DHT22;7101;51.600;7.310;2022-12-24T16:19:51;9.10;1.00
14053;DHT22;7101;51.600;7.310;2022-12-24T16:22:21;9.00;1.00